Berriedale, United Kingdom
Current Conditions -  °F | °C
As of 4:50 AM on Thursday 27 Nov 2014 (Local Time) from EGPC Reporting Station
Broken Clouds Broken Clouds  
Wind Chill: 41°   Ceiling: 3200
Heat Index: 45°   Visibility: 6mi
Dew Point: 41°   Wind: 7mph
Humidity: 87%   Direction: 170°S
Pressure: 29.71"   Gusts: NA
Location:  58.2°N, 3.48°W
Report Text: EGPC 270450Z AUTO 17006KT 9999 SCT012/// BKN032/// 07/05 Q1006
Loading
Personal Weather Stations






























Interactive Weather Map New forecast layout! Learn more

10-Day Weather Forecast

Advertisements
Track Severe Weather on mobile